sensor_id;sensor_type;location;lat;lon;timestamp;P1;durP1;ratioP1;P2;durP2;ratioP2
15476;SDS011;7840;42.702;23.296;2023-08-24T00:01:14;19.23;;;13.93;;
15476;SDS011;7840;42.702;23.296;2023-08-24T00:03:43;13.98;;;12.57;;
15476;SDS011;7840;42.702;23.296;2023-08-24T00:06:11;15.13;;;13.57;;
15476;SDS011;7840;42.702;23.296;2023-08-24T00:08:38;15.18;;;13.88;;
15476;SDS011;7840;42.702;23.296;2023-08-24T00:11:06;14.63;;;13.25;;
15476;SDS011;7840;42.702;23.296;2023-08-24T00:13:34;14.27;;;12.82;;
15476;SDS011;7840;42.702;23.296;2023-08-24T00:16:03;14.88;;;13.57;;
15476;SDS011;7840;42.702;23.296;2023-08-24T00:18:30;15.25;;;12.25;;
15476;SDS011;7840;42.702;23.296;2023-08-24T00:20:58;13.35;;;12.05;;
15476;SDS011;7840;42.702;23.296;2023-08-24T00:23:27;13.57;;;12.25;;
15476;SDS011;7840;42.702;23.296;2023-08-24T00:25:55;14.95;;;12.80;;
15476;SDS011;7840;42.702;23.296;2023-08-24T00:28:22;16.75;;;12.93;;
15476;SDS011;7840;42.702;23.296;2023-08-24T00:30:50;13.82;;;12.60;;
15476;SDS011;7840;42.702;23.296;2023-08-24T00:33:19;14.98;;;13.45;;
15476;SDS011;7840;42.702;23.296;2023-08-24T00:35:46;14.75;;;13.48;;
15476;SDS011;7840;42.702;23.296;2023-08-24T00:38:14;14.32;;;12.93;;
15476;SDS011;7840;42.702;23.296;2023-08-24T00:40:41;15.82;;;14.30;;
15476;SDS011;7840;42.702;23.296;2023-08-24T00:43:09;14.95;;;13.57;;
15476;SDS011;7840;42.702;23.296;2023-08-24T00:45:37;15.32;;;13.73;;
15476;SDS011;7840;42.702;23.296;2023-08-24T00:48:05;14.57;;;13.32;;
15476;SDS011;7840;42.702;23.296;2023-08-24T00:50:35;15.25;;;13.65;;
15476;SDS011;7840;42.702;23.296;2023-08-24T00:53:02;13.90;;;12.60;;
15476;SDS011;7840;42.702;23.296;2023-08-24T00:55:30;15.13;;;13.73;;
15476;SDS011;7840;42.702;23.296;2023-08-24T00:57:58;15.27;;;13.68;;
15476;SDS011;7840;42.702;23.296;2023-08-24T01:00:26;14.95;;;13.75;;
15476;SDS011;7840;42.702;23.296;2023-08-24T01:02:53;16.00;;;14.50;;
15476;SDS011;7840;42.702;23.296;2023-08-24T01:05:21;16.00;;;14.60;;
15476;SDS011;7840;42.702;23.296;2023-08-24T01:07:50;16.52;;;14.60;;
15476;SDS011;7840;42.702;23.296;2023-08-24T01:10:17;15.02;;;13.73;;
15476;SDS011;7840;42.702;23.296;2023-08-24T01:12:52;16.15;;;13.63;;
15476;SDS011;7840;42.702;23.296;2023-08-24T01:15:29;15.50;;;14.00;;
15476;SDS011;7840;42.702;23.296;2023-08-24T01:18:04;15.23;;;13.70;;
15476;SDS011;7840;42.702;23.296;2023-08-24T01:20:34;14.85;;;13.30;;
15476;SDS011;7840;42.702;23.296;2023-08-24T01:23:07;14.88;;;13.63;;
15476;SDS011;7840;42.702;23.296;2023-08-24T01:25:46;15.32;;;13.80;;
15476;SDS011;7840;42.702;23.296;2023-08-24T01:28:19;15.07;;;13.50;;
15476;SDS011;7840;42.702;23.296;2023-08-24T01:30:47;17.08;;;13.60;;
15476;SDS011;7840;42.702;23.296;2023-08-24T01:33:14;15.45;;;13.68;;
15476;SDS011;7840;42.702;23.296;2023-08-24T01:35:42;14.85;;;13.57;;
15476;SDS011;7840;42.702;23.296;2023-08-24T01:38:09;14.95;;;13.25;;
15476;SDS011;7840;42.702;23.296;2023-08-24T01:40:43;15.32;;;13.85;;
15476;SDS011;7840;42.702;23.296;2023-08-24T01:43:20;15.93;;;14.65;;
15476;SDS011;7840;42.702;23.296;2023-08-24T01:45:51;14.98;;;13.63;;
15476;SDS011;7840;42.702;23.296;2023-08-24T01:48:19;15.73;;;14.23;;
15476;SDS011;7840;42.702;23.296;2023-08-24T01:50:48;14.68;;;13.48;;
15476;SDS011;7840;42.702;23.296;2023-08-24T01:53:17;14.07;;;12.88;;
15476;SDS011;7840;42.702;23.296;2023-08-24T01:55:44;15.90;;;14.50;;
15476;SDS011;7840;42.702;23.296;2023-08-24T01:58:12;14.23;;;13.10;;
15476;SDS011;7840;42.702;23.296;2023-08-24T02:00:41;15.38;;;13.77;;
15476;SDS011;7840;42.702;23.296;2023-08-24T02:03:08;14.43;;;13.23;;
15476;SDS011;7840;42.702;23.296;2023-08-24T02:05:36;15.02;;;13.60;;
15476;SDS011;7840;42.702;23.296;2023-08-24T02:08:03;15.38;;;13.77;;
15476;SDS011;7840;42.702;23.296;2023-08-24T02:10:31;13.75;;;12.63;;
15476;SDS011;7840;42.702;23.296;2023-08-24T02:12:59;14.55;;;13.15;;
15476;SDS011;7840;42.702;23.296;2023-08-24T02:15:26;14.30;;;13.10;;
15476;SDS011;7840;42.702;23.296;2023-08-24T02:17:55;14.10;;;12.93;;
15476;SDS011;7840;42.702;23.296;2023-08-24T02:20:23;14.15;;;13.05;;
15476;SDS011;7840;42.702;23.296;2023-08-24T02:22:50;14.93;;;13.45;;
15476;SDS011;7840;42.702;23.296;2023-08-24T02:25:18;16.02;;;14.00;;
15476;SDS011;7840;42.702;23.296;2023-08-24T02:27:45;15.05;;;13.57;;
15476;SDS011;7840;42.702;23.296;2023-08-24T02:30:16;15.73;;;14.23;;
15476;SDS011;7840;42.702;23.296;2023-08-24T02:32:43;15.93;;;14.52;;
15476;SDS011;7840;42.702;23.296;2023-08-24T02:35:12;14.75;;;13.48;;
15476;SDS011;7840;42.702;23.296;2023-08-24T02:37:40;14.65;;;13.27;;
15476;SDS011;7840;42.702;23.296;2023-08-24T02:40:07;15.55;;;13.90;;
15476;SDS011;7840;42.702;23.296;2023-08-24T02:42:35;16.20;;;14.63;;
15476;SDS011;7840;42.702;23.296;2023-08-24T02:45:03;14.50;;;13.30;;
15476;SDS011;7840;42.702;23.296;2023-08-24T02:47:31;17.40;;;13.77;;
15476;SDS011;7840;42.702;23.296;2023-08-24T02:49:59;17.35;;;14.05;;
15476;SDS011;7840;42.702;23.296;2023-08-24T02:52:27;16.20;;;14.77;;
15476;SDS011;7840;42.702;23.296;2023-08-24T02:54:55;16.70;;;14.60;;
15476;SDS011;7840;42.702;23.296;2023-08-24T02:57:22;15.55;;;14.15;;
15476;SDS011;7840;42.702;23.296;2023-08-24T02:59:50;15.98;;;14.30;;
15476;SDS011;7840;42.702;23.296;2023-08-24T03:02:17;15.43;;;14.02;;
15476;SDS011;7840;42.702;23.296;2023-08-24T03:04:45;15.95;;;14.32;;
15476;SDS011;7840;42.702;23.296;2023-08-24T03:07:12;16.20;;;14.07;;
15476;SDS011;7840;42.702;23.296;2023-08-24T03:09:41;17.05;;;15.35;;
15476;SDS011;7840;42.702;23.296;2023-08-24T03:12:09;16.33;;;14.75;;
15476;SDS011;7840;42.702;23.296;2023-08-24T03:14:37;16.48;;;14.77;;
15476;SDS011;7840;42.702;23.296;2023-08-24T03:17:05;15.63;;;14.02;;
15476;SDS011;7840;42.702;23.296;2023-08-24T03:19:32;15.30;;;14.10;;
15476;SDS011;7840;42.702;23.296;2023-08-24T03:22:00;16.27;;;14.65;;
15476;SDS011;7840;42.702;23.296;2023-08-24T03:24:27;17.75;;;14.95;;
15476;SDS011;7840;42.702;23.296;2023-08-24T03:26:56;17.40;;;15.90;;
15476;SDS011;7840;42.702;23.296;2023-08-24T03:29:24;16.95;;;15.55;;
15476;SDS011;7840;42.702;23.296;2023-08-24T03:31:51;16.83;;;15.10;;
15476;SDS011;7840;42.702;23.296;2023-08-24T03:34:19;17.08;;;15.55;;
15476;SDS011;7840;42.702;23.296;2023-08-24T03:36:49;17.25;;;15.65;;
15476;SDS011;7840;42.702;23.296;2023-08-24T03:39:16;17.80;;;15.80;;
15476;SDS011;7840;42.702;23.296;2023-08-24T03:41:44;17.02;;;15.48;;
15476;SDS011;7840;42.702;23.296;2023-08-24T03:44:13;16.83;;;15.23;;
15476;SDS011;7840;42.702;23.296;2023-08-24T03:46:40;16.88;;;15.30;;
15476;SDS011;7840;42.702;23.296;2023-08-24T03:49:10;17.30;;;15.30;;
15476;SDS011;7840;42.702;23.296;2023-08-24T03:51:37;16.48;;;14.88;;
15476;SDS011;7840;42.702;23.296;2023-08-24T03:54:05;17.08;;;15.48;;
15476;SDS011;7840;42.702;23.296;2023-08-24T03:56:32;19.48;;;15.55;;
15476;SDS011;7840;42.702;23.296;2023-08-24T03:59:00;17.25;;;15.70;;
15476;SDS011;7840;42.702;23.296;2023-08-24T04:01:29;17.40;;;15.82;;
15476;SDS011;7840;42.702;23.296;2023-08-24T04:03:56;17.38;;;15.77;;
15476;SDS011;7840;42.702;23.296;2023-08-24T04:06:24;17.40;;;15.80;;
15476;SDS011;7840;42.702;23.296;2023-08-24T04:08:51;16.90;;;15.35;;
15476;SDS011;7840;42.702;23.296;2023-08-24T04:11:19;17.23;;;15.65;;
15476;SDS011;7840;42.702;23.296;2023-08-24T04:13:46;16.08;;;13.95;;
15476;SDS011;7840;42.702;23.296;2023-08-24T04:16:14;17.58;;;15.68;;
15476;SDS011;7840;42.702;23.296;2023-08-24T04:18:43;24.58;;;17.52;;
15476;SDS011;7840;42.702;23.296;2023-08-24T04:21:10;19.27;;;17.48;;
15476;SDS011;7840;42.702;23.296;2023-08-24T04:23:38;20.48;;;18.48;;
15476;SDS011;7840;42.702;23.296;2023-08-24T04:26:10;26.27;;;18.38;;
15476;SDS011;7840;42.702;23.296;2023-08-24T04:28:37;20.88;;;18.52;;
15476;SDS011;7840;42.702;23.296;2023-08-24T04:31:05;19.23;;;17.25;;
15476;SDS011;7840;42.702;23.296;2023-08-24T04:33:32;19.88;;;17.85;;
15476;SDS011;7840;42.702;23.296;2023-08-24T04:36:01;18.23;;;16.25;;
15476;SDS011;7840;42.702;23.296;2023-08-24T04:38:29;18.23;;;16.40;;
15476;SDS011;7840;42.702;23.296;2023-08-24T04:40:56;17.88;;;16.27;;
15476;SDS011;7840;42.702;23.296;2023-08-24T04:43:24;18.08;;;16.63;;
15476;SDS011;7840;42.702;23.296;2023-08-24T04:45:52;18.05;;;16.30;;
15476;SDS011;7840;42.702;23.296;2023-08-24T04:48:20;19.67;;;16.35;;
15476;SDS011;7840;42.702;23.296;2023-08-24T04:50:49;16.48;;;14.90;;
15476;SDS011;7840;42.702;23.296;2023-08-24T04:53:19;18.92;;;15.68;;
15476;SDS011;7840;42.702;23.296;2023-08-24T04:55:47;18.77;;;16.75;;
15476;SDS011;7840;42.702;23.296;2023-08-24T04:58:15;18.63;;;16.90;;
15476;SDS011;7840;42.702;23.296;2023-08-24T05:00:42;17.38;;;15.65;;
15476;SDS011;7840;42.702;23.296;2023-08-24T05:03:10;18.98;;;16.35;;
15476;SDS011;7840;42.702;23.296;2023-08-24T05:05:38;18.23;;;16.42;;
15476;SDS011;7840;42.702;23.296;2023-08-24T05:08:06;18.45;;;16.55;;
15476;SDS011;7840;42.702;23.296;2023-08-24T05:10:36;19.92;;;17.05;;
15476;SDS011;7840;42.702;23.296;2023-08-24T05:13:04;19.23;;;17.38;;
15476;SDS011;7840;42.702;23.296;2023-08-24T05:15:31;18.52;;;16.77;;
15476;SDS011;7840;42.702;23.296;2023-08-24T05:17:59;17.35;;;15.85;;
15476;SDS011;7840;42.702;23.296;2023-08-24T05:20:27;18.33;;;16.48;;
15476;SDS011;7840;42.702;23.296;2023-08-24T05:22:55;18.67;;;16.33;;
15476;SDS011;7840;42.702;23.296;2023-08-24T05:25:23;19.73;;;17.73;;
15476;SDS011;7840;42.702;23.296;2023-08-24T05:27:52;19.42;;;17.40;;
15476;SDS011;7840;42.702;23.296;2023-08-24T05:30:19;20.23;;;18.13;;
15476;SDS011;7840;42.702;23.296;2023-08-24T05:32:47;19.90;;;17.90;;
15476;SDS011;7840;42.702;23.296;2023-08-24T05:35:14;19.63;;;17.10;;
15476;SDS011;7840;42.702;23.296;2023-08-24T05:37:42;18.48;;;16.77;;
15476;SDS011;7840;42.702;23.296;2023-08-24T05:40:10;20.00;;;17.92;;
15476;SDS011;7840;42.702;23.296;2023-08-24T05:42:37;18.80;;;16.83;;
15476;SDS011;7840;42.702;23.296;2023-08-24T05:45:07;19.67;;;17.48;;
15476;SDS011;7840;42.702;23.296;2023-08-24T05:47:35;20.80;;;17.35;;
15476;SDS011;7840;42.702;23.296;2023-08-24T05:50:02;19.30;;;17.35;;
15476;SDS011;7840;42.702;23.296;2023-08-24T05:52:30;21.88;;;16.73;;
15476;SDS011;7840;42.702;23.296;2023-08-24T05:54:58;20.67;;;16.92;;
15476;SDS011;7840;42.702;23.296;2023-08-24T05:57:25;21.67;;;16.60;;
15476;SDS011;7840;42.702;23.296;2023-08-24T05:59:53;18.67;;;16.65;;
15476;SDS011;7840;42.702;23.296;2023-08-24T06:02:22;18.70;;;16.83;;
15476;SDS011;7840;42.702;23.296;2023-08-24T06:04:49;18.95;;;17.27;;
15476;SDS011;7840;42.702;23.296;2023-08-24T06:07:17;19.00;;;17.45;;
15476;SDS011;7840;42.702;23.296;2023-08-24T06:09:44;18.40;;;16.48;;
15476;SDS011;7840;42.702;23.296;2023-08-24T06:12:12;20.42;;;18.23;;
15476;SDS011;7840;42.702;23.296;2023-08-24T06:14:39;19.35;;;17.48;;
15476;SDS011;7840;42.702;23.296;2023-08-24T06:17:06;19.08;;;16.92;;
15476;SDS011;7840;42.702;23.296;2023-08-24T06:19:35;19.60;;;17.77;;
15476;SDS011;7840;42.702;23.296;2023-08-24T06:22:03;19.02;;;16.90;;
15476;SDS011;7840;42.702;23.296;2023-08-24T06:26:58;21.67;;;17.42;;
15476;SDS011;7840;42.702;23.296;2023-08-24T06:29:27;18.55;;;16.70;;
15476;SDS011;7840;42.702;23.296;2023-08-24T06:31:55;23.73;;;17.63;;
15476;SDS011;7840;42.702;23.296;2023-08-24T06:34:22;18.38;;;16.67;;
15476;SDS011;7840;42.702;23.296;2023-08-24T06:36:52;20.98;;;16.40;;
15476;SDS011;7840;42.702;23.296;2023-08-24T06:39:21;17.10;;;15.52;;
15476;SDS011;7840;42.702;23.296;2023-08-24T06:41:50;16.30;;;14.90;;
15476;SDS011;7840;42.702;23.296;2023-08-24T06:44:17;18.00;;;15.00;;
15476;SDS011;7840;42.702;23.296;2023-08-24T06:46:45;16.20;;;14.70;;
15476;SDS011;7840;42.702;23.296;2023-08-24T06:49:12;17.13;;;14.60;;
15476;SDS011;7840;42.702;23.296;2023-08-24T06:51:40;17.95;;;15.27;;
15476;SDS011;7840;42.702;23.296;2023-08-24T06:54:08;16.23;;;14.93;;
15476;SDS011;7840;42.702;23.296;2023-08-24T06:56:36;15.75;;;14.07;;
15476;SDS011;7840;42.702;23.296;2023-08-24T06:59:04;15.40;;;14.20;;
15476;SDS011;7840;42.702;23.296;2023-08-24T07:01:31;16.55;;;15.00;;
15476;SDS011;7840;42.702;23.296;2023-08-24T07:03:59;14.82;;;13.38;;
15476;SDS011;7840;42.702;23.296;2023-08-24T07:06:26;16.20;;;13.50;;
15476;SDS011;7840;42.702;23.296;2023-08-24T07:08:54;15.95;;;14.55;;
15476;SDS011;7840;42.702;23.296;2023-08-24T07:11:25;14.65;;;13.02;;
15476;SDS011;7840;42.702;23.296;2023-08-24T07:13:53;16.83;;;14.82;;
15476;SDS011;7840;42.702;23.296;2023-08-24T07:16:20;16.20;;;13.80;;
15476;SDS011;7840;42.702;23.296;2023-08-24T07:18:48;15.75;;;14.07;;
15476;SDS011;7840;42.702;23.296;2023-08-24T07:21:15;15.13;;;13.70;;
15476;SDS011;7840;42.702;23.296;2023-08-24T07:23:43;17.65;;;14.23;;
15476;SDS011;7840;42.702;23.296;2023-08-24T07:26:10;14.77;;;13.27;;
15476;SDS011;7840;42.702;23.296;2023-08-24T07:28:40;14.35;;;12.80;;
15476;SDS011;7840;42.702;23.296;2023-08-24T07:31:07;13.98;;;12.68;;
15476;SDS011;7840;42.702;23.296;2023-08-24T07:33:36;15.40;;;12.63;;
15476;SDS011;7840;42.702;23.296;2023-08-24T07:36:04;13.50;;;12.40;;
15476;SDS011;7840;42.702;23.296;2023-08-24T07:38:32;20.95;;;13.15;;
15476;SDS011;7840;42.702;23.296;2023-08-24T07:41:00;13.13;;;11.95;;
15476;SDS011;7840;42.702;23.296;2023-08-24T07:43:28;14.40;;;13.00;;
15476;SDS011;7840;42.702;23.296;2023-08-24T07:45:57;17.75;;;13.07;;
15476;SDS011;7840;42.702;23.296;2023-08-24T07:48:25;16.00;;;13.95;;
15476;SDS011;7840;42.702;23.296;2023-08-24T07:50:53;16.67;;;13.13;;
15476;SDS011;7840;42.702;23.296;2023-08-24T07:53:20;13.43;;;11.65;;
15476;SDS011;7840;42.702;23.296;2023-08-24T07:55:47;13.90;;;12.52;;
15476;SDS011;7840;42.702;23.296;2023-08-24T07:58:15;14.38;;;12.93;;
15476;SDS011;7840;42.702;23.296;2023-08-24T08:00:43;17.23;;;13.20;;
15476;SDS011;7840;42.702;23.296;2023-08-24T08:03:12;13.18;;;11.90;;
15476;SDS011;7840;42.702;23.296;2023-08-24T08:05:40;19.45;;;12.98;;
15476;SDS011;7840;42.702;23.296;2023-08-24T08:08:07;13.77;;;12.35;;
15476;SDS011;7840;42.702;23.296;2023-08-24T08:10:35;12.90;;;11.68;;
15476;SDS011;7840;42.702;23.296;2023-08-24T08:13:02;14.27;;;12.63;;
15476;SDS011;7840;42.702;23.296;2023-08-24T08:15:30;15.63;;;11.43;;
15476;SDS011;7840;42.702;23.296;2023-08-24T08:17:57;16.48;;;12.27;;
15476;SDS011;7840;42.702;23.296;2023-08-24T08:20:26;14.55;;;11.50;;
15476;SDS011;7840;42.702;23.296;2023-08-24T08:22:54;11.95;;;10.80;;
15476;SDS011;7840;42.702;23.296;2023-08-24T08:25:21;13.10;;;11.85;;
15476;SDS011;7840;42.702;23.296;2023-08-24T08:27:49;14.48;;;12.60;;
15476;SDS011;7840;42.702;23.296;2023-08-24T08:30:17;13.27;;;10.77;;
15476;SDS011;7840;42.702;23.296;2023-08-24T08:32:45;13.10;;;10.82;;
15476;SDS011;7840;42.702;23.296;2023-08-24T08:35:13;12.95;;;11.55;;
15476;SDS011;7840;42.702;23.296;2023-08-24T08:37:42;13.00;;;11.15;;
15476;SDS011;7840;42.702;23.296;2023-08-24T08:40:10;12.60;;;11.20;;
15476;SDS011;7840;42.702;23.296;2023-08-24T08:42:38;18.77;;;11.88;;
15476;SDS011;7840;42.702;23.296;2023-08-24T08:45:08;11.73;;;10.63;;
15476;SDS011;7840;42.702;23.296;2023-08-24T08:47:36;13.18;;;10.70;;
15476;SDS011;7840;42.702;23.296;2023-08-24T08:50:06;15.23;;;11.38;;
15476;SDS011;7840;42.702;23.296;2023-08-24T08:52:34;16.30;;;10.85;;
15476;SDS011;7840;42.702;23.296;2023-08-24T08:55:03;13.63;;;10.93;;
15476;SDS011;7840;42.702;23.296;2023-08-24T08:57:34;11.90;;;10.80;;
15476;SDS011;7840;42.702;23.296;2023-08-24T09:00:02;12.32;;;11.00;;
15476;SDS011;7840;42.702;23.296;2023-08-24T09:02:32;12.75;;;11.43;;
15476;SDS011;7840;42.702;23.296;2023-08-24T09:05:00;12.60;;;11.18;;
15476;SDS011;7840;42.702;23.296;2023-08-24T09:07:29;12.10;;;11.05;;
15476;SDS011;7840;42.702;23.296;2023-08-24T09:09:58;13.05;;;10.95;;
15476;SDS011;7840;42.702;23.296;2023-08-24T09:12:28;12.57;;;11.38;;
15476;SDS011;7840;42.702;23.296;2023-08-24T09:14:58;13.10;;;11.95;;
15476;SDS011;7840;42.702;23.296;2023-08-24T09:17:26;12.13;;;10.95;;
15476;SDS011;7840;42.702;23.296;2023-08-24T09:19:57;13.35;;;11.32;;
15476;SDS011;7840;42.702;23.296;2023-08-24T09:22:26;13.18;;;11.27;;
15476;SDS011;7840;42.702;23.296;2023-08-24T09:24:53;12.45;;;11.45;;
15476;SDS011;7840;42.702;23.296;2023-08-24T09:27:21;15.80;;;12.55;;
15476;SDS011;7840;42.702;23.296;2023-08-24T09:29:50;16.00;;;12.27;;
15476;SDS011;7840;42.702;23.296;2023-08-24T09:32:22;13.23;;;12.00;;
15476;SDS011;7840;42.702;23.296;2023-08-24T09:34:50;13.98;;;12.65;;
15476;SDS011;7840;42.702;23.296;2023-08-24T09:37:17;13.05;;;11.82;;
15476;SDS011;7840;42.702;23.296;2023-08-24T09:39:45;13.32;;;11.95;;
15476;SDS011;7840;42.702;23.296;2023-08-24T09:42:13;13.05;;;11.73;;
15476;SDS011;7840;42.702;23.296;2023-08-24T09:44:43;12.18;;;11.02;;
15476;SDS011;7840;42.702;23.296;2023-08-24T09:47:12;13.50;;;12.07;;
15476;SDS011;7840;42.702;23.296;2023-08-24T09:49:40;12.98;;;11.93;;
15476;SDS011;7840;42.702;23.296;2023-08-24T09:52:08;12.75;;;11.57;;
15476;SDS011;7840;42.702;23.296;2023-08-24T09:54:36;12.57;;;11.52;;
15476;SDS011;7840;42.702;23.296;2023-08-24T09:57:06;12.75;;;11.45;;
15476;SDS011;7840;42.702;23.296;2023-08-24T09:59:35;12.40;;;11.40;;
15476;SDS011;7840;42.702;23.296;2023-08-24T10:02:20;13.00;;;11.80;;
15476;SDS011;7840;42.702;23.296;2023-08-24T10:04:49;11.93;;;10.90;;
15476;SDS011;7840;42.702;23.296;2023-08-24T10:07:20;12.63;;;11.50;;
15476;SDS011;7840;42.702;23.296;2023-08-24T10:09:52;12.20;;;11.23;;
15476;SDS011;7840;42.702;23.296;2023-08-24T10:12:24;12.07;;;10.90;;
15476;SDS011;7840;42.702;23.296;2023-08-24T10:14:56;11.75;;;10.73;;
15476;SDS011;7840;42.702;23.296;2023-08-24T10:17:33;13.13;;;11.02;;
15476;SDS011;7840;42.702;23.296;2023-08-24T10:20:02;13.10;;;11.50;;
15476;SDS011;7840;42.702;23.296;2023-08-24T10:22:33;12.63;;;11.63;;
15476;SDS011;7840;42.702;23.296;2023-08-24T10:25:02;13.00;;;11.35;;
15476;SDS011;7840;42.702;23.296;2023-08-24T10:27:34;11.25;;;10.07;;
15476;SDS011;7840;42.702;23.296;2023-08-24T10:30:02;11.18;;;10.18;;
15476;SDS011;7840;42.702;23.296;2023-08-24T10:32:30;11.38;;;10.25;;
15476;SDS011;7840;42.702;23.296;2023-08-24T10:35:00;10.65;;;9.65;;
15476;SDS011;7840;42.702;23.296;2023-08-24T10:37:27;10.18;;;9.27;;
15476;SDS011;7840;42.702;23.296;2023-08-24T10:39:56;9.93;;;9.13;;
15476;SDS011;7840;42.702;23.296;2023-08-24T10:42:23;10.00;;;9.23;;
15476;SDS011;7840;42.702;23.296;2023-08-24T10:44:51;12.85;;;9.60;;
15476;SDS011;7840;42.702;23.296;2023-08-24T10:47:19;11.05;;;9.93;;
15476;SDS011;7840;42.702;23.296;2023-08-24T10:49:59;10.52;;;9.65;;
15476;SDS011;7840;42.702;23.296;2023-08-24T10:52:30;11.93;;;10.25;;
15476;SDS011;7840;42.702;23.296;2023-08-24T10:57:35;13.23;;;10.35;;
15476;SDS011;7840;42.702;23.296;2023-08-24T11:00:04;14.07;;;10.40;;
15476;SDS011;7840;42.702;23.296;2023-08-24T11:02:41;14.95;;;10.73;;
15476;SDS011;7840;42.702;23.296;2023-08-24T11:05:20;12.63;;;9.57;;
15476;SDS011;7840;42.702;23.296;2023-08-24T11:07:50;13.82;;;8.35;;
15476;SDS011;7840;42.702;23.296;2023-08-24T11:10:19;11.85;;;7.40;;
15476;SDS011;7840;42.702;23.296;2023-08-24T11:13:04;10.57;;;8.85;;
15476;SDS011;7840;42.702;23.296;2023-08-24T11:15:33;14.90;;;8.60;;
15476;SDS011;7840;42.702;23.296;2023-08-24T11:20:59;9.98;;;8.95;;
15476;SDS011;7840;42.702;23.296;2023-08-24T11:23:28;10.40;;;9.35;;
15476;SDS011;7840;42.702;23.296;2023-08-24T11:25:56;10.30;;;9.00;;
15476;SDS011;7840;42.702;23.296;2023-08-24T11:28:26;9.25;;;8.55;;
15476;SDS011;7840;42.702;23.296;2023-08-24T11:30:55;9.73;;;9.00;;
15476;SDS011;7840;42.702;23.296;2023-08-24T11:33:27;9.32;;;8.35;;
15476;SDS011;7840;42.702;23.296;2023-08-24T11:35:57;11.10;;;8.57;;
15476;SDS011;7840;42.702;23.296;2023-08-24T11:38:25;9.90;;;8.25;;
15476;SDS011;7840;42.702;23.296;2023-08-24T11:41:01;11.40;;;9.00;;
15476;SDS011;7840;42.702;23.296;2023-08-24T11:43:38;10.57;;;9.27;;
15476;SDS011;7840;42.702;23.296;2023-08-24T11:46:06;12.93;;;8.80;;
15476;SDS011;7840;42.702;23.296;2023-08-24T11:48:34;11.15;;;8.88;;
15476;SDS011;7840;42.702;23.296;2023-08-24T11:51:03;10.27;;;8.80;;
15476;SDS011;7840;42.702;23.296;2023-08-24T11:53:37;10.05;;;8.38;;
15476;SDS011;7840;42.702;23.296;2023-08-24T11:56:05;9.90;;;8.95;;
15476;SDS011;7840;42.702;23.296;2023-08-24T11:58:35;12.00;;;9.65;;
15476;SDS011;7840;42.702;23.296;2023-08-24T12:01:05;9.93;;;8.98;;
15476;SDS011;7840;42.702;23.296;2023-08-24T12:03:33;11.07;;;9.90;;
15476;SDS011;7840;42.702;23.296;2023-08-24T12:06:01;10.43;;;9.18;;
15476;SDS011;7840;42.702;23.296;2023-08-24T12:08:36;13.07;;;9.75;;
15476;SDS011;7840;42.702;23.296;2023-08-24T12:11:09;10.27;;;9.38;;
15476;SDS011;7840;42.702;23.296;2023-08-24T12:13:42;12.63;;;10.52;;
15476;SDS011;7840;42.702;23.296;2023-08-24T12:16:11;17.17;;;10.23;;
15476;SDS011;7840;42.702;23.296;2023-08-24T12:18:46;11.75;;;9.90;;
15476;SDS011;7840;42.702;23.296;2023-08-24T12:21:18;12.18;;;10.32;;
15476;SDS011;7840;42.702;23.296;2023-08-24T12:23:54;11.30;;;9.40;;
15476;SDS011;7840;42.702;23.296;2023-08-24T12:26:23;14.95;;;9.48;;
15476;SDS011;7840;42.702;23.296;2023-08-24T12:28:52;11.15;;;9.75;;
15476;SDS011;7840;42.702;23.296;2023-08-24T12:31:26;10.50;;;9.50;;
15476;SDS011;7840;42.702;23.296;2023-08-24T12:33:58;14.52;;;10.07;;
15476;SDS011;7840;42.702;23.296;2023-08-24T12:36:29;10.73;;;9.50;;
15476;SDS011;7840;42.702;23.296;2023-08-24T12:38:58;13.27;;;9.88;;
15476;SDS011;7840;42.702;23.296;2023-08-24T12:41:25;13.95;;;10.07;;
15476;SDS011;7840;42.702;23.296;2023-08-24T12:43:53;10.73;;;9.60;;
15476;SDS011;7840;42.702;23.296;2023-08-24T12:46:20;11.25;;;9.63;;
15476;SDS011;7840;42.702;23.296;2023-08-24T12:48:48;11.25;;;9.63;;
15476;SDS011;7840;42.702;23.296;2023-08-24T12:51:16;11.30;;;9.77;;
15476;SDS011;7840;42.702;23.296;2023-08-24T12:53:45;11.93;;;10.77;;
15476;SDS011;7840;42.702;23.296;2023-08-24T12:56:13;12.13;;;10.93;;
15476;SDS011;7840;42.702;23.296;2023-08-24T12:58:40;13.55;;;12.10;;
15476;SDS011;7840;42.702;23.296;2023-08-24T13:01:08;13.05;;;11.75;;
15476;SDS011;7840;42.702;23.296;2023-08-24T13:03:37;11.63;;;10.60;;
15476;SDS011;7840;42.702;23.296;2023-08-24T13:06:05;11.73;;;10.63;;
15476;SDS011;7840;42.702;23.296;2023-08-24T13:08:33;15.73;;;10.65;;
15476;SDS011;7840;42.702;23.296;2023-08-24T13:11:02;12.80;;;9.82;;
15476;SDS011;7840;42.702;23.296;2023-08-24T13:13:30;9.57;;;8.60;;
15476;SDS011;7840;42.702;23.296;2023-08-24T13:15:57;11.02;;;8.68;;
15476;SDS011;7840;42.702;23.296;2023-08-24T13:18:25;9.90;;;9.00;;
15476;SDS011;7840;42.702;23.296;2023-08-24T13:20:52;12.88;;;9.52;;
15476;SDS011;7840;42.702;23.296;2023-08-24T13:23:20;10.13;;;9.23;;
15476;SDS011;7840;42.702;23.296;2023-08-24T13:25:47;11.73;;;10.02;;
15476;SDS011;7840;42.702;23.296;2023-08-24T13:28:16;11.40;;;10.05;;
15476;SDS011;7840;42.702;23.296;2023-08-24T13:30:44;10.48;;;9.60;;
15476;SDS011;7840;42.702;23.296;2023-08-24T13:33:13;11.70;;;10.18;;
15476;SDS011;7840;42.702;23.296;2023-08-24T13:35:41;16.33;;;10.23;;
15476;SDS011;7840;42.702;23.296;2023-08-24T13:38:08;12.05;;;10.85;;
15476;SDS011;7840;42.702;23.296;2023-08-24T13:40:36;14.55;;;9.93;;
15476;SDS011;7840;42.702;23.296;2023-08-24T13:43:04;11.43;;;10.23;;
15476;SDS011;7840;42.702;23.296;2023-08-24T13:45:33;15.70;;;10.20;;
15476;SDS011;7840;42.702;23.296;2023-08-24T13:48:00;14.75;;;10.15;;
15476;SDS011;7840;42.702;23.296;2023-08-24T13:50:28;12.63;;;9.70;;
15476;SDS011;7840;42.702;23.296;2023-08-24T13:52:56;11.68;;;9.73;;
15476;SDS011;7840;42.702;23.296;2023-08-24T13:57:53;11.63;;;9.85;;
15476;SDS011;7840;42.702;23.296;2023-08-24T14:00:21;13.68;;;9.93;;
15476;SDS011;7840;42.702;23.296;2023-08-24T14:02:50;11.15;;;9.73;;
15476;SDS011;7840;42.702;23.296;2023-08-24T14:05:17;10.60;;;9.50;;
15476;SDS011;7840;42.702;23.296;2023-08-24T14:07:45;10.77;;;9.63;;
15476;SDS011;7840;42.702;23.296;2023-08-24T14:10:13;10.25;;;9.30;;
15476;SDS011;7840;42.702;23.296;2023-08-24T14:12:41;11.02;;;9.93;;
15476;SDS011;7840;42.702;23.296;2023-08-24T14:15:10;10.55;;;9.65;;
15476;SDS011;7840;42.702;23.296;2023-08-24T14:17:38;10.38;;;9.57;;
15476;SDS011;7840;42.702;23.296;2023-08-24T14:20:07;10.55;;;9.57;;
15476;SDS011;7840;42.702;23.296;2023-08-24T14:22:35;11.27;;;10.15;;
15476;SDS011;7840;42.702;23.296;2023-08-24T14:25:03;11.40;;;9.25;;
15476;SDS011;7840;42.702;23.296;2023-08-24T14:27:31;10.80;;;9.90;;
15476;SDS011;7840;42.702;23.296;2023-08-24T14:30:02;12.02;;;10.15;;
15476;SDS011;7840;42.702;23.296;2023-08-24T14:32:31;10.88;;;9.75;;
15476;SDS011;7840;42.702;23.296;2023-08-24T14:35:02;11.77;;;9.45;;
15476;SDS011;7840;42.702;23.296;2023-08-24T14:37:31;10.32;;;9.32;;
15476;SDS011;7840;42.702;23.296;2023-08-24T14:39:59;10.48;;;9.63;;
15476;SDS011;7840;42.702;23.296;2023-08-24T14:42:26;10.07;;;9.18;;